sensor_id;sensor_type;location;lat;lon;timestamp;temperature;humidity
26541;DHT22;14206;50.202;10.948;2023-03-01T00:01:20;-0.60;87.90
26541;DHT22;14206;50.202;10.948;2023-03-01T00:03:47;-0.60;87.90
26541;DHT22;14206;50.202;10.948;2023-03-01T00:06:14;-0.60;87.90
26541;DHT22;14206;50.202;10.948;2023-03-01T00:08:41;-0.70;88.00
26541;DHT22;14206;50.202;10.948;2023-03-01T00:11:26;-0.70;87.90
26541;DHT22;14206;50.202;10.948;2023-03-01T00:13:57;-0.70;87.40
26541;DHT22;14206;50.202;10.948;2023-03-01T00:16:30;-0.80;87.50
26541;DHT22;14206;50.202;10.948;2023-03-01T00:18:58;-0.80;87.60
26541;DHT22;14206;50.202;10.948;2023-03-01T00:21:26;-0.90;87.80
26541;DHT22;14206;50.202;10.948;2023-03-01T00:23:54;-0.90;88.00
26541;DHT22;14206;50.202;10.948;2023-03-01T00:26:22;-1.00;88.00
26541;DHT22;14206;50.202;10.948;2023-03-01T00:28:49;-1.00;87.80
26541;DHT22;14206;50.202;10.948;2023-03-01T00:31:19;-1.10;87.90
26541;DHT22;14206;50.202;10.948;2023-03-01T00:33:46;-1.10;88.20
26541;DHT22;14206;50.202;10.948;2023-03-01T00:36:15;-1.20;88.10
26541;DHT22;14206;50.202;10.948;2023-03-01T00:38:44;-1.20;88.10
26541;DHT22;14206;50.202;10.948;2023-03-01T00:41:14;-1.20;88.10
26541;DHT22;14206;50.202;10.948;2023-03-01T00:43:41;-1.20;88.30
26541;DHT22;14206;50.202;10.948;2023-03-01T00:46:10;-1.30;88.80
26541;DHT22;14206;50.202;10.948;2023-03-01T00:48:38;-1.30;89.00
26541;DHT22;14206;50.202;10.948;2023-03-01T00:51:18;-1.40;89.00
26541;DHT22;14206;50.202;10.948;2023-03-01T00:53:46;-1.50;89.40
26541;DHT22;14206;50.202;10.948;2023-03-01T00:56:14;-1.40;89.70
26541;DHT22;14206;50.202;10.948;2023-03-01T00:58:42;-1.50;89.70
26541;DHT22;14206;50.202;10.948;2023-03-01T01:01:15;-1.50;89.50
26541;DHT22;14206;50.202;10.948;2023-03-01T01:03:56;-1.50;89.60
26541;DHT22;14206;50.202;10.948;2023-03-01T01:06:34;-1.50;90.20
26541;DHT22;14206;50.202;10.948;2023-03-01T01:09:03;-1.40;90.40
26541;DHT22;14206;50.202;10.948;2023-03-01T01:11:31;-1.40;90.40
26541;DHT22;14206;50.202;10.948;2023-03-01T01:14:00;-1.40;90.40
26541;DHT22;14206;50.202;10.948;2023-03-01T01:16:28;-1.40;90.40
26541;DHT22;14206;50.202;10.948;2023-03-01T01:18:56;-1.40;90.30
26541;DHT22;14206;50.202;10.948;2023-03-01T01:21:24;-1.40;90.10
26541;DHT22;14206;50.202;10.948;2023-03-01T01:23:51;-1.40;89.90
26541;DHT22;14206;50.202;10.948;2023-03-01T01:26:24;-1.40;89.60
26541;DHT22;14206;50.202;10.948;2023-03-01T01:28:51;-1.40;89.70
26541;DHT22;14206;50.202;10.948;2023-03-01T01:31:20;-1.50;89.60
26541;DHT22;14206;50.202;10.948;2023-03-01T01:33:52;-1.50;90.20
26541;DHT22;14206;50.202;10.948;2023-03-01T01:36:20;-1.50;90.20
26541;DHT22;14206;50.202;10.948;2023-03-01T01:38:47;-1.50;89.90
26541;DHT22;14206;50.202;10.948;2023-03-01T01:41:15;-1.50;90.10
26541;DHT22;14206;50.202;10.948;2023-03-01T01:43:45;-1.50;90.20
26541;DHT22;14206;50.202;10.948;2023-03-01T01:46:31;-1.60;90.40
26541;DHT22;14206;50.202;10.948;2023-03-01T01:49:35;-1.50;90.60
26541;DHT22;14206;50.202;10.948;2023-03-01T01:54:57;-1.50;90.20
26541;DHT22;14206;50.202;10.948;2023-03-01T01:57:37;-1.40;90.10
26541;DHT22;14206;50.202;10.948;2023-03-01T02:00:08;-1.40;90.10
26541;DHT22;14206;50.202;10.948;2023-03-01T02:02:39;-1.40;89.90
26541;DHT22;14206;50.202;10.948;2023-03-01T02:08:02;-1.40;89.70
26541;DHT22;14206;50.202;10.948;2023-03-01T02:10:32;-1.50;89.60
26541;DHT22;14206;50.202;10.948;2023-03-01T02:13:00;-1.50;89.60
26541;DHT22;14206;50.202;10.948;2023-03-01T02:15:32;-1.50;89.80
26541;DHT22;14206;50.202;10.948;2023-03-01T02:18:02;-1.50;90.10
26541;DHT22;14206;50.202;10.948;2023-03-01T02:20:33;-1.40;90.10
26541;DHT22;14206;50.202;10.948;2023-03-01T02:23:01;-1.40;89.70
26541;DHT22;14206;50.202;10.948;2023-03-01T02:25:33;-1.40;89.30
26541;DHT22;14206;50.202;10.948;2023-03-01T02:30:45;-1.50;89.20
26541;DHT22;14206;50.202;10.948;2023-03-01T02:33:34;-1.60;89.50
26541;DHT22;14206;50.202;10.948;2023-03-01T02:36:09;-1.60;89.60
26541;DHT22;14206;50.202;10.948;2023-03-01T02:38:38;-1.70;89.40
26541;DHT22;14206;50.202;10.948;2023-03-01T02:41:06;-1.70;89.50
26541;DHT22;14206;50.202;10.948;2023-03-01T02:43:33;-1.70;89.40
26541;DHT22;14206;50.202;10.948;2023-03-01T02:46:08;-1.80;89.50
26541;DHT22;14206;50.202;10.948;2023-03-01T02:48:47;-1.90;89.90
26541;DHT22;14206;50.202;10.948;2023-03-01T02:56:20;-1.90;90.80
26541;DHT22;14206;50.202;10.948;2023-03-01T02:58:48;-2.00;90.70
26541;DHT22;14206;50.202;10.948;2023-03-01T03:01:20;-1.90;90.80
26541;DHT22;14206;50.202;10.948;2023-03-01T03:03:47;-1.90;90.60
26541;DHT22;14206;50.202;10.948;2023-03-01T03:06:14;-1.90;90.60
26541;DHT22;14206;50.202;10.948;2023-03-01T03:08:41;-2.00;90.40
26541;DHT22;14206;50.202;10.948;2023-03-01T03:11:08;-2.00;90.60
26541;DHT22;14206;50.202;10.948;2023-03-01T03:13:35;-2.00;90.80
26541;DHT22;14206;50.202;10.948;2023-03-01T03:16:02;-2.00;90.60
26541;DHT22;14206;50.202;10.948;2023-03-01T03:18:30;-2.00;90.50
26541;DHT22;14206;50.202;10.948;2023-03-01T03:20:57;-2.00;90.10
26541;DHT22;14206;50.202;10.948;2023-03-01T03:23:23;-2.10;90.00
26541;DHT22;14206;50.202;10.948;2023-03-01T03:25:50;-2.10;89.90
26541;DHT22;14206;50.202;10.948;2023-03-01T03:28:18;-2.20;90.30
26541;DHT22;14206;50.202;10.948;2023-03-01T03:30:45;-2.20;90.40
26541;DHT22;14206;50.202;10.948;2023-03-01T03:33:13;-2.20;90.90
26541;DHT22;14206;50.202;10.948;2023-03-01T03:35:46;-2.30;91.20
26541;DHT22;14206;50.202;10.948;2023-03-01T03:38:16;-2.30;91.40
26541;DHT22;14206;50.202;10.948;2023-03-01T03:40:48;-2.30;91.60
26541;DHT22;14206;50.202;10.948;2023-03-01T03:43:18;-2.30;91.50
26541;DHT22;14206;50.202;10.948;2023-03-01T03:45:46;-2.30;91.50
26541;DHT22;14206;50.202;10.948;2023-03-01T03:48:13;-2.40;92.00
26541;DHT22;14206;50.202;10.948;2023-03-01T03:50:41;-2.40;92.30
26541;DHT22;14206;50.202;10.948;2023-03-01T03:53:10;-2.30;92.40
26541;DHT22;14206;50.202;10.948;2023-03-01T03:55:37;-2.30;92.30
26541;DHT22;14206;50.202;10.948;2023-03-01T03:58:08;-2.30;92.40
26541;DHT22;14206;50.202;10.948;2023-03-01T04:00:37;-2.20;92.20
26541;DHT22;14206;50.202;10.948;2023-03-01T04:03:04;-2.20;92.00
26541;DHT22;14206;50.202;10.948;2023-03-01T04:05:31;-2.20;92.20
26541;DHT22;14206;50.202;10.948;2023-03-01T04:07:58;-2.20;92.20
26541;DHT22;14206;50.202;10.948;2023-03-01T04:10:34;-2.20;92.30
26541;DHT22;14206;50.202;10.948;2023-03-01T04:13:03;-2.20;92.30
26541;DHT22;14206;50.202;10.948;2023-03-01T04:15:31;-2.10;92.40
26541;DHT22;14206;50.202;10.948;2023-03-01T04:18:00;-2.10;92.60
26541;DHT22;14206;50.202;10.948;2023-03-01T04:20:32;-2.00;92.70
26541;DHT22;14206;50.202;10.948;2023-03-01T04:23:09;-1.90;92.60
26541;DHT22;14206;50.202;10.948;2023-03-01T04:25:52;-1.90;92.20
26541;DHT22;14206;50.202;10.948;2023-03-01T04:28:29;-1.80;92.20
26541;DHT22;14206;50.202;10.948;2023-03-01T04:30:57;-1.70;92.10
26541;DHT22;14206;50.202;10.948;2023-03-01T04:33:25;-1.70;91.90
26541;DHT22;14206;50.202;10.948;2023-03-01T04:35:52;-1.60;91.90
26541;DHT22;14206;50.202;10.948;2023-03-01T04:38:19;-1.60;91.70
26541;DHT22;14206;50.202;10.948;2023-03-01T04:40:48;-1.60;91.60
26541;DHT22;14206;50.202;10.948;2023-03-01T04:43:14;-1.50;91.40
26541;DHT22;14206;50.202;10.948;2023-03-01T04:45:42;-1.50;91.10
26541;DHT22;14206;50.202;10.948;2023-03-01T04:48:09;-1.50;91.00
26541;DHT22;14206;50.202;10.948;2023-03-01T04:50:36;-1.50;90.80
26541;DHT22;14206;50.202;10.948;2023-03-01T04:53:03;-1.50;90.80
26541;DHT22;14206;50.202;10.948;2023-03-01T04:55:30;-1.50;90.80
26541;DHT22;14206;50.202;10.948;2023-03-01T04:57:56;-1.50;90.80
26541;DHT22;14206;50.202;10.948;2023-03-01T05:00:24;-1.50;90.90
26541;DHT22;14206;50.202;10.948;2023-03-01T05:02:56;-1.50;90.80
26541;DHT22;14206;50.202;10.948;2023-03-01T05:05:35;-1.50;90.70
26541;DHT22;14206;50.202;10.948;2023-03-01T05:08:06;-1.50;90.70
26541;DHT22;14206;50.202;10.948;2023-03-01T05:10:35;-1.50;90.60
26541;DHT22;14206;50.202;10.948;2023-03-01T05:13:03;-1.50;90.50
26541;DHT22;14206;50.202;10.948;2023-03-01T05:15:32;-1.40;90.50
26541;DHT22;14206;50.202;10.948;2023-03-01T05:17:59;-1.40;90.40
26541;DHT22;14206;50.202;10.948;2023-03-01T05:20:28;-1.50;90.40
26541;DHT22;14206;50.202;10.948;2023-03-01T05:22:58;-1.50;90.40
26541;DHT22;14206;50.202;10.948;2023-03-01T05:25:26;-1.50;90.40
26541;DHT22;14206;50.202;10.948;2023-03-01T05:27:53;-1.50;90.40
26541;DHT22;14206;50.202;10.948;2023-03-01T05:30:20;-1.50;90.20
26541;DHT22;14206;50.202;10.948;2023-03-01T05:32:50;-1.50;90.10
26541;DHT22;14206;50.202;10.948;2023-03-01T05:35:22;-1.50;90.10
26541;DHT22;14206;50.202;10.948;2023-03-01T05:37:50;-1.40;90.10
26541;DHT22;14206;50.202;10.948;2023-03-01T05:40:21;-1.40;89.90
26541;DHT22;14206;50.202;10.948;2023-03-01T05:42:51;-1.40;89.80
26541;DHT22;14206;50.202;10.948;2023-03-01T05:45:18;-1.50;89.60
26541;DHT22;14206;50.202;10.948;2023-03-01T05:47:47;-1.40;89.80
26541;DHT22;14206;50.202;10.948;2023-03-01T05:50:23;-1.50;89.80
26541;DHT22;14206;50.202;10.948;2023-03-01T05:52:51;-1.50;89.70
26541;DHT22;14206;50.202;10.948;2023-03-01T05:55:20;-1.50;89.60
26541;DHT22;14206;50.202;10.948;2023-03-01T05:57:47;-1.50;89.60
26541;DHT22;14206;50.202;10.948;2023-03-01T06:00:16;-1.50;89.80
26541;DHT22;14206;50.202;10.948;2023-03-01T06:02:43;-1.50;90.10
26541;DHT22;14206;50.202;10.948;2023-03-01T06:05:14;-1.50;89.70
26541;DHT22;14206;50.202;10.948;2023-03-01T06:07:41;-1.50;89.80
26541;DHT22;14206;50.202;10.948;2023-03-01T06:10:09;-1.60;89.80
26541;DHT22;14206;50.202;10.948;2023-03-01T06:12:38;-1.60;90.00
26541;DHT22;14206;50.202;10.948;2023-03-01T06:15:06;-1.60;89.50
26541;DHT22;14206;50.202;10.948;2023-03-01T06:17:35;-1.60;89.60
26541;DHT22;14206;50.202;10.948;2023-03-01T06:20:11;-1.60;89.70
26541;DHT22;14206;50.202;10.948;2023-03-01T06:22:38;-1.60;89.30
26541;DHT22;14206;50.202;10.948;2023-03-01T06:25:06;-1.60;89.10
26541;DHT22;14206;50.202;10.948;2023-03-01T06:27:34;-1.60;89.40
26541;DHT22;14206;50.202;10.948;2023-03-01T06:30:01;-1.60;89.90
26541;DHT22;14206;50.202;10.948;2023-03-01T06:32:38;-1.60;90.00
26541;DHT22;14206;50.202;10.948;2023-03-01T06:35:13;-1.50;89.90
26541;DHT22;14206;50.202;10.948;2023-03-01T06:37:41;-1.50;89.80
26541;DHT22;14206;50.202;10.948;2023-03-01T06:40:09;-1.40;89.90
26541;DHT22;14206;50.202;10.948;2023-03-01T06:42:40;-1.40;89.80
26541;DHT22;14206;50.202;10.948;2023-03-01T06:45:08;-1.30;89.60
26541;DHT22;14206;50.202;10.948;2023-03-01T06:47:35;-1.20;89.40
26541;DHT22;14206;50.202;10.948;2023-03-01T06:50:03;-1.10;89.10
26541;DHT22;14206;50.202;10.948;2023-03-01T06:52:30;-1.00;88.90
26541;DHT22;14206;50.202;10.948;2023-03-01T06:54:56;-1.00;88.80
26541;DHT22;14206;50.202;10.948;2023-03-01T06:57:23;-0.90;88.60
26541;DHT22;14206;50.202;10.948;2023-03-01T06:59:50;-0.80;88.40
26541;DHT22;14206;50.202;10.948;2023-03-01T07:02:18;-0.70;88.40
26541;DHT22;14206;50.202;10.948;2023-03-01T07:04:45;-0.60;88.00
26541;DHT22;14206;50.202;10.948;2023-03-01T07:07:11;-0.50;87.50
26541;DHT22;14206;50.202;10.948;2023-03-01T07:09:38;-0.40;87.10
26541;DHT22;14206;50.202;10.948;2023-03-01T07:12:05;-0.30;86.70
26541;DHT22;14206;50.202;10.948;2023-03-01T07:14:33;-0.20;86.10
26541;DHT22;14206;50.202;10.948;2023-03-01T07:17:00;0.10;85.60
26541;DHT22;14206;50.202;10.948;2023-03-01T07:19:26;0.60;84.30
26541;DHT22;14206;50.202;10.948;2023-03-01T07:21:53;1.70;82.80
26541;DHT22;14206;50.202;10.948;2023-03-01T07:24:22;3.00;79.00
26541;DHT22;14206;50.202;10.948;2023-03-01T07:26:50;4.40;74.80
26541;DHT22;14206;50.202;10.948;2023-03-01T07:29:17;5.70;71.80
26541;DHT22;14206;50.202;10.948;2023-03-01T07:31:44;7.00;68.00
26541;DHT22;14206;50.202;10.948;2023-03-01T07:34:12;8.00;64.70
26541;DHT22;14206;50.202;10.948;2023-03-01T07:36:39;8.80;62.70
26541;DHT22;14206;50.202;10.948;2023-03-01T07:39:10;9.20;61.20
26541;DHT22;14206;50.202;10.948;2023-03-01T07:41:37;8.60;61.20
26541;DHT22;14206;50.202;10.948;2023-03-01T07:44:04;7.70;61.50
26541;DHT22;14206;50.202;10.948;2023-03-01T07:46:31;6.80;63.00
26541;DHT22;14206;50.202;10.948;2023-03-01T07:48:59;6.20;64.90
26541;DHT22;14206;50.202;10.948;2023-03-01T07:51:25;6.70;64.90
26541;DHT22;14206;50.202;10.948;2023-03-01T07:53:52;7.60;64.20
26541;DHT22;14206;50.202;10.948;2023-03-01T07:56:19;8.50;62.00
26541;DHT22;14206;50.202;10.948;2023-03-01T07:58:48;9.60;60.40
26541;DHT22;14206;50.202;10.948;2023-03-01T08:01:18;10.40;57.70
26541;DHT22;14206;50.202;10.948;2023-03-01T08:03:46;11.10;55.80
26541;DHT22;14206;50.202;10.948;2023-03-01T08:06:15;11.80;55.20
26541;DHT22;14206;50.202;10.948;2023-03-01T08:08:43;12.20;52.70
26541;DHT22;14206;50.202;10.948;2023-03-01T08:11:14;12.60;52.30
26541;DHT22;14206;50.202;10.948;2023-03-01T08:13:42;13.10;52.20
26541;DHT22;14206;50.202;10.948;2023-03-01T08:16:12;13.50;51.40
26541;DHT22;14206;50.202;10.948;2023-03-01T08:18:39;14.00;50.50
26541;DHT22;14206;50.202;10.948;2023-03-01T08:21:10;14.00;49.30
26541;DHT22;14206;50.202;10.948;2023-03-01T08:23:37;14.10;49.90
26541;DHT22;14206;50.202;10.948;2023-03-01T08:26:10;13.60;49.60
26541;DHT22;14206;50.202;10.948;2023-03-01T08:28:39;12.60;50.30
26541;DHT22;14206;50.202;10.948;2023-03-01T08:33:48;10.40;53.70
26541;DHT22;14206;50.202;10.948;2023-03-01T08:36:18;9.70;55.60
26541;DHT22;14206;50.202;10.948;2023-03-01T08:38:46;9.30;56.20
26541;DHT22;14206;50.202;10.948;2023-03-01T08:41:13;8.80;56.90
26541;DHT22;14206;50.202;10.948;2023-03-01T08:43:41;8.40;57.50
26541;DHT22;14206;50.202;10.948;2023-03-01T08:46:08;8.10;59.10
26541;DHT22;14206;50.202;10.948;2023-03-01T08:48:35;7.90;59.00
26541;DHT22;14206;50.202;10.948;2023-03-01T08:51:28;7.60;60.00
26541;DHT22;14206;50.202;10.948;2023-03-01T08:53:55;7.50;61.20
26541;DHT22;14206;50.202;10.948;2023-03-01T08:56:22;7.40;60.90
26541;DHT22;14206;50.202;10.948;2023-03-01T08:58:49;7.20;61.70
26541;DHT22;14206;50.202;10.948;2023-03-01T09:01:18;7.20;61.70
26541;DHT22;14206;50.202;10.948;2023-03-01T09:03:47;7.20;62.10
26541;DHT22;14206;50.202;10.948;2023-03-01T09:06:14;7.30;61.50
26541;DHT22;14206;50.202;10.948;2023-03-01T09:08:43;7.40;61.40
26541;DHT22;14206;50.202;10.948;2023-03-01T09:11:13;7.60;61.80
26541;DHT22;14206;50.202;10.948;2023-03-01T09:13:40;7.80;60.70
26541;DHT22;14206;50.202;10.948;2023-03-01T09:16:19;7.90;61.00
26541;DHT22;14206;50.202;10.948;2023-03-01T09:18:54;8.00;61.60
26541;DHT22;14206;50.202;10.948;2023-03-01T09:21:23;8.00;60.00
26541;DHT22;14206;50.202;10.948;2023-03-01T09:24:08;8.00;60.40
26541;DHT22;14206;50.202;10.948;2023-03-01T09:26:38;8.00;60.20
26541;DHT22;14206;50.202;10.948;2023-03-01T09:29:05;8.10;60.50
26541;DHT22;14206;50.202;10.948;2023-03-01T09:31:32;8.10;60.70
26541;DHT22;14206;50.202;10.948;2023-03-01T09:33:59;8.20;60.40
26541;DHT22;14206;50.202;10.948;2023-03-01T09:36:25;8.40;59.60
26541;DHT22;14206;50.202;10.948;2023-03-01T09:38:52;8.90;59.30
26541;DHT22;14206;50.202;10.948;2023-03-01T09:46:53;9.70;56.80
26541;DHT22;14206;50.202;10.948;2023-03-01T09:49:25;9.80;56.40
26541;DHT22;14206;50.202;10.948;2023-03-01T09:54:47;9.60;56.90
26541;DHT22;14206;50.202;10.948;2023-03-01T09:57:43;9.50;55.60
26541;DHT22;14206;50.202;10.948;2023-03-01T10:02:51;10.00;56.40
26541;DHT22;14206;50.202;10.948;2023-03-01T10:10:33;10.60;55.80
26541;DHT22;14206;50.202;10.948;2023-03-01T10:15:57;12.60;52.30
26541;DHT22;14206;50.202;10.948;2023-03-01T10:18:30;13.30;51.40
26541;DHT22;14206;50.202;10.948;2023-03-01T10:21:02;14.00;50.40
26541;DHT22;14206;50.202;10.948;2023-03-01T10:23:34;14.40;48.90
26541;DHT22;14206;50.202;10.948;2023-03-01T10:29:01;15.20;47.20
26541;DHT22;14206;50.202;10.948;2023-03-01T10:31:38;15.70;45.80
26541;DHT22;14206;50.202;10.948;2023-03-01T10:36:44;16.90;45.40
26541;DHT22;14206;50.202;10.948;2023-03-01T10:39:17;17.50;43.40
26541;DHT22;14206;50.202;10.948;2023-03-01T10:49:59;18.90;41.30
26541;DHT22;14206;50.202;10.948;2023-03-01T10:55:02;19.40;39.60
26541;DHT22;14206;50.202;10.948;2023-03-01T10:57:34;19.30;39.00
26541;DHT22;14206;50.202;10.948;2023-03-01T11:02:43;18.00;40.00
26541;DHT22;14206;50.202;10.948;2023-03-01T11:07:54;18.40;40.80
26541;DHT22;14206;50.202;10.948;2023-03-01T11:10:24;18.50;38.70
26541;DHT22;14206;50.202;10.948;2023-03-01T11:12:53;18.60;39.00
26541;DHT22;14206;50.202;10.948;2023-03-01T11:15:30;18.60;39.10
26541;DHT22;14206;50.202;10.948;2023-03-01T11:17:58;18.30;39.20
26541;DHT22;14206;50.202;10.948;2023-03-01T11:20:39;17.70;39.70
26541;DHT22;14206;50.202;10.948;2023-03-01T11:23:12;16.90;39.90
26541;DHT22;14206;50.202;10.948;2023-03-01T11:25:42;16.20;40.90
26541;DHT22;14206;50.202;10.948;2023-03-01T11:28:17;15.70;42.20
26541;DHT22;14206;50.202;10.948;2023-03-01T11:30:53;14.80;42.90
26541;DHT22;14206;50.202;10.948;2023-03-01T11:36:49;14.40;44.00
26541;DHT22;14206;50.202;10.948;2023-03-01T11:38:50;14.80;43.60
26541;DHT22;14206;50.202;10.948;2023-03-01T11:41:21;15.50;43.20
26541;DHT22;14206;50.202;10.948;2023-03-01T11:44:17;16.00;42.10
26541;DHT22;14206;50.202;10.948;2023-03-01T11:46:59;16.60;41.30
26541;DHT22;14206;50.202;10.948;2023-03-01T12:03:33;12.30;47.70
26541;DHT22;14206;50.202;10.948;2023-03-01T12:11:41;10.70;50.90
26541;DHT22;14206;50.202;10.948;2023-03-01T12:17:30;10.00;51.30
26541;DHT22;14206;50.202;10.948;2023-03-01T12:37:17;9.20;53.80
26541;DHT22;14206;50.202;10.948;2023-03-01T12:43:00;9.30;56.30
26541;DHT22;14206;50.202;10.948;2023-03-01T12:48:34;9.20;56.00
26541;DHT22;14206;50.202;10.948;2023-03-01T12:51:06;9.10;55.90
26541;DHT22;14206;50.202;10.948;2023-03-01T12:53:43;9.10;56.60
26541;DHT22;14206;50.202;10.948;2023-03-01T12:56:15;9.10;55.40
26541;DHT22;14206;50.202;10.948;2023-03-01T13:18:04;8.80;59.20
26541;DHT22;14206;50.202;10.948;2023-03-01T13:20:51;8.80;59.60
26541;DHT22;14206;50.202;10.948;2023-03-01T13:26:10;8.70;58.40
26541;DHT22;14206;50.202;10.948;2023-03-01T13:38:59;8.50;61.10
26541;DHT22;14206;50.202;10.948;2023-03-01T13:46:51;8.20;61.10
26541;DHT22;14206;50.202;10.948;2023-03-01T13:49:25;8.20;61.50
26541;DHT22;14206;50.202;10.948;2023-03-01T13:52:02;8.40;61.30
26541;DHT22;14206;50.202;10.948;2023-03-01T13:54:33;8.60;61.30
26541;DHT22;14206;50.202;10.948;2023-03-01T13:57:01;8.90;60.90
26541;DHT22;14206;50.202;10.948;2023-03-01T13:59:28;9.00;60.20
26541;DHT22;14206;50.202;10.948;2023-03-01T14:01:59;9.10;59.70
26541;DHT22;14206;50.202;10.948;2023-03-01T14:04:29;9.30;60.00
26541;DHT22;14206;50.202;10.948;2023-03-01T14:07:21;9.70;59.10
26541;DHT22;14206;50.202;10.948;2023-03-01T14:09:53;9.90;57.90
26541;DHT22;14206;50.202;10.948;2023-03-01T14:12:48;9.50;58.80
26541;DHT22;14206;50.202;10.948;2023-03-01T14:15:36;9.30;60.10
26541;DHT22;14206;50.202;10.948;2023-03-01T14:18:24;9.20;59.40
26541;DHT22;14206;50.202;10.948;2023-03-01T14:20:53;8.90;60.70
26541;DHT22;14206;50.202;10.948;2023-03-01T14:23:23;8.70;62.00
26541;DHT22;14206;50.202;10.948;2023-03-01T14:25:59;8.50;62.60
26541;DHT22;14206;50.202;10.948;2023-03-01T14:28:28;8.30;63.00
26541;DHT22;14206;50.202;10.948;2023-03-01T14:31:00;8.20;62.90
26541;DHT22;14206;50.202;10.948;2023-03-01T14:33:33;8.00;62.80
26541;DHT22;14206;50.202;10.948;2023-03-01T14:36:03;7.90;63.90
26541;DHT22;14206;50.202;10.948;2023-03-01T14:38:38;7.80;64.50
26541;DHT22;14206;50.202;10.948;2023-03-01T14:41:16;7.70;64.30
26541;DHT22;14206;50.202;10.948;2023-03-01T14:43:46;7.60;64.00
26541;DHT22;14206;50.202;10.948;2023-03-01T14:48:53;7.50;64.70
26541;DHT22;14206;50.202;10.948;2023-03-01T14:51:21;7.40;65.00
26541;DHT22;14206;50.202;10.948;2023-03-01T14:53:48;7.30;65.90
26541;DHT22;14206;50.202;10.948;2023-03-01T14:56:17;7.30;65.60
26541;DHT22;14206;50.202;10.948;2023-03-01T14:58:45;7.30;66.30
26541;DHT22;14206;50.202;10.948;2023-03-01T15:01:16;7.20;65.90
26541;DHT22;14206;50.202;10.948;2023-03-01T15:03:49;7.20;66.10
26541;DHT22;14206;50.202;10.948;2023-03-01T15:06:19;7.20;66.10
26541;DHT22;14206;50.202;10.948;2023-03-01T15:08:49;7.10;66.30
26541;DHT22;14206;50.202;10.948;2023-03-01T15:11:23;7.00;66.60
26541;DHT22;14206;50.202;10.948;2023-03-01T15:13:52;6.90;67.60
26541;DHT22;14206;50.202;10.948;2023-03-01T15:16:22;6.80;68.10
26541;DHT22;14206;50.202;10.948;2023-03-01T15:21:31;6.70;68.00
26541;DHT22;14206;50.202;10.948;2023-03-01T15:24:23;6.70;68.30
26541;DHT22;14206;50.202;10.948;2023-03-01T15:26:51;6.70;68.80
26541;DHT22;14206;50.202;10.948;2023-03-01T15:29:26;6.60;68.50
26541;DHT22;14206;50.202;10.948;2023-03-01T15:34:32;6.50;68.50
26541;DHT22;14206;50.202;10.948;2023-03-01T15:37:02;6.50;68.40
26541;DHT22;14206;50.202;10.948;2023-03-01T15:39:54;6.40;68.70
26541;DHT22;14206;50.202;10.948;2023-03-01T15:47:50;6.30;69.00
26541;DHT22;14206;50.202;10.948;2023-03-01T15:50:26;6.20;69.20
26541;DHT22;14206;50.202;10.948;2023-03-01T15:52:55;6.20;69.40
26541;DHT22;14206;50.202;10.948;2023-03-01T15:55:30;6.10;69.00
26541;DHT22;14206;50.202;10.948;2023-03-01T15:58:05;6.10;69.30
26541;DHT22;14206;50.202;10.948;2023-03-01T16:00:36;6.10;69.20
26541;DHT22;14206;50.202;10.948;2023-03-01T16:03:13;6.00;69.40
26541;DHT22;14206;50.202;10.948;2023-03-01T16:05:40;6.00;69.60
26541;DHT22;14206;50.202;10.948;2023-03-01T16:08:07;5.90;69.70
26541;DHT22;14206;50.202;10.948;2023-03-01T16:10:35;5.80;70.60
26541;DHT22;14206;50.202;10.948;2023-03-01T16:13:02;5.70;70.40
26541;DHT22;14206;50.202;10.948;2023-03-01T16:15:32;5.70;70.50
26541;DHT22;14206;50.202;10.948;2023-03-01T16:18:03;5.60;71.10
26541;DHT22;14206;50.202;10.948;2023-03-01T16:20:31;5.50;71.20
26541;DHT22;14206;50.202;10.948;2023-03-01T16:23:01;5.50;71.30
26541;DHT22;14206;50.202;10.948;2023-03-01T16:25:29;5.40;71.40
26541;DHT22;14206;50.202;10.948;2023-03-01T16:27:57;5.40;71.60
26541;DHT22;14206;50.202;10.948;2023-03-01T16:30:27;5.30;71.90
26541;DHT22;14206;50.202;10.948;2023-03-01T16:32:55;5.30;72.30
26541;DHT22;14206;50.202;10.948;2023-03-01T16:35:22;5.20;72.40
26541;DHT22;14206;50.202;10.948;2023-03-01T16:37:50;5.20;72.40
26541;DHT22;14206;50.202;10.948;2023-03-01T16:40:22;5.10;72.50
26541;DHT22;14206;50.202;10.948;2023-03-01T16:42:50;5.00;72.60
26541;DHT22;14206;50.202;10.948;2023-03-01T16:45:18;4.90;72.90
26541;DHT22;14206;50.202;10.948;2023-03-01T16:47:54;4.90;73.10
26541;DHT22;14206;50.202;10.948;2023-03-01T16:50:27;4.80;73.00
26541;DHT22;14206;50.202;10.948;2023-03-01T16:52:54;4.70;73.10
26541;DHT22;14206;50.202;10.948;2023-03-01T16:55:21;4.60;73.00
26541;DHT22;14206;50.202;10.948;2023-03-01T16:57:47;4.60;73.00
26541;DHT22;14206;50.202;10.948;2023-03-01T17:00:15;4.50;73.60
26541;DHT22;14206;50.202;10.948;2023-03-01T17:02:42;4.40;73.80
26541;DHT22;14206;50.202;10.948;2023-03-01T17:05:09;4.40;74.30
26541;DHT22;14206;50.202;10.948;2023-03-01T17:07:38;4.30;74.20
26541;DHT22;14206;50.202;10.948;2023-03-01T17:10:09;4.20;74.60
26541;DHT22;14206;50.202;10.948;2023-03-01T17:12:36;4.20;74.70
26541;DHT22;14206;50.202;10.948;2023-03-01T17:15:05;4.10;75.10
26541;DHT22;14206;50.202;10.948;2023-03-01T17:17:32;4.10;75.60
26541;DHT22;14206;50.202;10.948;2023-03-01T17:20:01;4.00;75.70
26541;DHT22;14206;50.202;10.948;2023-03-01T17:22:35;3.90;76.20
26541;DHT22;14206;50.202;10.948;2023-03-01T17:25:02;3.90;76.60
26541;DHT22;14206;50.202;10.948;2023-03-01T17:27:29;3.80;76.80
26541;DHT22;14206;50.202;10.948;2023-03-01T17:29:56;3.70;77.00
26541;DHT22;14206;50.202;10.948;2023-03-01T17:32:22;3.70;77.00
26541;DHT22;14206;50.202;10.948;2023-03-01T17:34:49;3.70;77.20
26541;DHT22;14206;50.202;10.948;2023-03-01T17:37:17;3.60;77.70
26541;DHT22;14206;50.202;10.948;2023-03-01T17:39:44;3.50;77.80
26541;DHT22;14206;50.202;10.948;2023-03-01T17:42:11;3.50;78.00
26541;DHT22;14206;50.202;10.948;2023-03-01T17:44:38;3.40;78.00
26541;DHT22;14206;50.202;10.948;2023-03-01T17:47:05;3.40;78.30
26541;DHT22;14206;50.202;10.948;2023-03-01T17:49:32;3.40;78.50
26541;DHT22;14206;50.202;10.948;2023-03-01T17:51:59;3.30;78.70
26541;DHT22;14206;50.202;10.948;2023-03-01T17:54:26;3.20;78.80
26541;DHT22;14206;50.202;10.948;2023-03-01T17:56:53;3.20;79.40
26541;DHT22;14206;50.202;10.948;2023-03-01T17:59:21;3.10;79.50
26541;DHT22;14206;50.202;10.948;2023-03-01T18:01:48;3.10;79.70
26541;DHT22;14206;50.202;10.948;2023-03-01T18:04:22;3.10;79.60
26541;DHT22;14206;50.202;10.948;2023-03-01T18:06:49;3.10;79.70
26541;DHT22;14206;50.202;10.948;2023-03-01T18:09:16;3.10;79.80
26541;DHT22;14206;50.202;10.948;2023-03-01T18:11:52;3.00;79.90
26541;DHT22;14206;50.202;10.948;2023-03-01T18:14:19;3.00;79.60
26541;DHT22;14206;50.202;10.948;2023-03-01T18:16:46;3.00;79.60
26541;DHT22;14206;50.202;10.948;2023-03-01T18:19:13;3.00;79.90